createdAt,value
2022-08-19T00:00:51.635Z,28.00
2022-08-19T00:03:38.112Z,28.07
2022-08-19T00:06:24.345Z,28.24
2022-08-19T00:09:13.427Z,28.13
2022-08-19T00:12:00.210Z,27.80
2022-08-19T00:14:46.976Z,28.01
2022-08-19T00:17:33.287Z,28.08
2022-08-19T00:20:22.181Z,28.21
2022-08-19T00:23:08.209Z,28.06
2022-08-19T00:25:54.710Z,27.76
2022-08-19T00:28:41.135Z,27.63
2022-08-19T00:31:28.863Z,27.13
2022-08-19T00:34:15.609Z,27.43
2022-08-19T00:37:01.974Z,27.41
2022-08-19T00:39:49.204Z,27.37
2022-08-19T00:42:35.552Z,27.05
2022-08-19T00:45:25.259Z,27.51
2022-08-19T00:48:14.892Z,27.44
2022-08-19T00:51:02.202Z,26.89
2022-08-19T00:53:48.478Z,26.94
2022-08-19T00:56:34.937Z,27.29
2022-08-19T00:59:58.829Z,27.22
2022-08-19T01:02:28.627Z,27.25
2022-08-19T01:05:22.170Z,27.31
2022-08-19T01:08:08.911Z,26.98
2022-08-19T01:10:57.805Z,27.46
2022-08-19T01:13:49.690Z,26.95
2022-08-19T01:16:38.263Z,27.46
2022-08-19T01:19:43.393Z,27.36
2022-08-19T01:22:33.883Z,27.30
2022-08-19T01:25:35.377Z,27.63
2022-08-19T01:28:39.683Z,27.55
2022-08-19T01:31:32.519Z,27.39
2022-08-19T01:34:20.372Z,27.29
2022-08-19T01:37:09.061Z,27.69
2022-08-19T01:39:55.645Z,27.10
2022-08-19T01:42:42.290Z,26.94
2022-08-19T01:45:30.148Z,27.15
2022-08-19T01:48:16.312Z,27.18
2022-08-19T01:51:02.840Z,27.21
2022-08-19T01:53:50.445Z,27.18
2022-08-19T01:56:36.801Z,27.19
2022-08-19T01:59:24.148Z,27.25
2022-08-19T02:02:10.414Z,27.30
2022-08-19T02:04:56.910Z,27.12
2022-08-19T02:07:43.127Z,26.67
2022-08-19T02:10:29.363Z,26.85
2022-08-19T02:13:15.802Z,27.08
2022-08-19T02:16:08.248Z,27.25
2022-08-19T02:18:58.013Z,26.92
2022-08-19T02:21:44.632Z,27.32
2022-08-19T02:24:30.852Z,27.18
2022-08-19T02:27:17.711Z,26.98
2022-08-19T02:30:05.258Z,27.05
2022-08-19T02:32:52.698Z,27.02
2022-08-19T02:35:43.361Z,26.83
2022-08-19T02:38:29.913Z,26.99
2022-08-19T02:41:21.499Z,27.12
2022-08-19T02:44:30.312Z,26.43
2022-08-19T02:47:16.229Z,26.82
2022-08-19T02:50:03.937Z,27.03
2022-08-19T02:52:50.454Z,26.91
2022-08-19T02:55:46.132Z,26.99
2022-08-19T02:58:32.844Z,27.10
2022-08-19T03:01:31.074Z,27.09
2022-08-19T03:04:17.402Z,26.89
2022-08-19T03:07:10.931Z,26.84
2022-08-19T03:09:57.192Z,27.01
2022-08-19T03:12:43.646Z,26.83
2022-08-19T03:15:30.148Z,26.74
2022-08-19T03:18:18.020Z,26.80
2022-08-19T03:21:04.588Z,26.80
2022-08-19T03:23:54.529Z,26.75
2022-08-19T03:26:42.840Z,26.75
2022-08-19T03:29:32.621Z,26.82
2022-08-19T03:32:32.342Z,26.72
2022-08-19T03:35:21.253Z,26.45
2022-08-19T03:38:07.737Z,26.69
2022-08-19T03:40:54.002Z,26.61
2022-08-19T03:43:41.481Z,26.60
2022-08-19T03:46:30.251Z,26.73
2022-08-19T03:49:18.299Z,26.69
2022-08-19T03:52:08.292Z,26.54
2022-08-19T03:55:00.673Z,26.69
2022-08-19T03:57:49.502Z,26.32
2022-08-19T04:00:36.877Z,26.45
2022-08-19T04:03:24.559Z,26.63
2022-08-19T04:06:16.851Z,26.47
2022-08-19T04:09:05.958Z,26.28
2022-08-19T04:11:57.601Z,26.05
2022-08-19T04:14:44.277Z,26.43
2022-08-19T04:17:30.753Z,26.38
2022-08-19T04:20:16.898Z,26.32
2022-08-19T04:23:03.367Z,26.50
2022-08-19T04:25:49.990Z,26.61
2022-08-19T04:28:37.055Z,26.64
2022-08-19T04:31:27.131Z,26.58
2022-08-19T04:34:16.415Z,26.61
2022-08-19T04:37:12.688Z,26.55
2022-08-19T04:40:17.721Z,26.23
2022-08-19T04:43:04.056Z,26.07
2022-08-19T04:45:56.358Z,26.45
2022-08-19T04:48:49.272Z,26.28
2022-08-19T04:51:37.406Z,26.51
2022-08-19T04:54:38.549Z,26.51
2022-08-19T04:57:25.373Z,26.10
2022-08-19T05:00:12.473Z,26.23
2022-08-19T05:02:58.675Z,26.35
2022-08-19T05:05:50.918Z,26.64
2022-08-19T05:08:38.651Z,26.25
2022-08-19T05:11:27.559Z,26.56
2022-08-19T05:14:14.116Z,26.31
2022-08-19T05:17:24.013Z,26.42
2022-08-19T05:20:28.727Z,26.78
2022-08-19T05:23:22.139Z,26.89
2022-08-19T05:26:11.459Z,26.55
2022-08-19T05:28:57.697Z,26.62
2022-08-19T05:31:44.317Z,26.84
2022-08-19T05:34:30.899Z,26.33
2022-08-19T05:37:18.073Z,26.92
2022-08-19T05:40:05.116Z,27.05
2022-08-19T05:42:55.228Z,26.41
2022-08-19T05:45:43.039Z,26.91
2022-08-19T05:48:29.343Z,27.35
2022-08-19T05:51:17.796Z,27.53
2022-08-19T05:54:05.360Z,27.14
2022-08-19T05:56:52.820Z,27.31
2022-08-19T05:59:39.194Z,27.48
2022-08-19T06:02:31.617Z,27.24
2022-08-19T06:05:18.254Z,27.13
2022-08-19T06:08:05.563Z,27.23
2022-08-19T06:10:51.876Z,27.14
2022-08-19T06:13:38.351Z,27.45
2022-08-19T06:16:24.743Z,27.31
2022-08-19T06:19:14.555Z,27.40
2022-08-19T06:22:01.945Z,27.74
2022-08-19T06:24:48.628Z,27.59
2022-08-19T06:27:35.121Z,27.57
2022-08-19T06:30:21.602Z,27.72
2022-08-19T06:33:08.154Z,27.64
2022-08-19T06:35:54.393Z,27.89
2022-08-19T06:38:40.779Z,27.96
2022-08-19T06:41:27.979Z,27.92
2022-08-19T06:44:14.586Z,28.03
2022-08-19T06:47:14.325Z,28.09
2022-08-19T06:50:03.961Z,27.92
2022-08-19T06:52:52.478Z,28.38
2022-08-19T06:55:40.354Z,28.45
2022-08-19T06:58:27.001Z,28.78
2022-08-19T07:01:18.164Z,28.89
2022-08-19T07:04:06.202Z,29.00
2022-08-19T07:06:59.840Z,28.81
2022-08-19T07:10:07.847Z,28.90
2022-08-19T07:12:54.712Z,28.90
2022-08-19T07:15:41.042Z,29.10
2022-08-19T07:18:27.360Z,29.61
2022-08-19T07:21:20.261Z,29.51
2022-08-19T07:24:07.218Z,29.90
2022-08-19T07:26:55.821Z,29.85
2022-08-19T07:29:42.470Z,29.99
2022-08-19T07:32:28.948Z,30.04
2022-08-19T07:35:15.485Z,30.38
2022-08-19T07:38:04.123Z,30.54
2022-08-19T07:40:52.289Z,30.31
2022-08-19T07:43:39.293Z,30.60
2022-08-19T07:46:25.795Z,30.47
2022-08-19T07:49:20.345Z,30.66
2022-08-19T07:52:09.036Z,31.23
2022-08-19T07:54:55.193Z,31.05
2022-08-19T07:57:41.687Z,30.62
2022-08-19T08:00:28.046Z,31.56
2022-08-19T08:03:16.563Z,31.29
2022-08-19T08:06:21.448Z,31.08
2022-08-19T08:15:21.369Z,31.95
2022-08-19T08:18:12.744Z,31.92
2022-08-19T08:21:01.204Z,32.17
2022-08-19T08:23:47.516Z,32.57
2022-08-19T08:26:34.520Z,32.61
2022-08-19T08:29:20.857Z,32.41
2022-08-19T08:32:14.037Z,32.54
2022-08-19T08:35:01.214Z,32.34
2022-08-19T08:37:51.237Z,32.60
2022-08-19T08:40:49.696Z,32.97
2022-08-19T08:43:38.929Z,32.95
2022-08-19T08:46:35.781Z,33.06
2022-08-19T08:49:29.587Z,33.32
2022-08-19T08:52:31.852Z,33.02
2022-08-19T08:55:23.118Z,32.73
2022-08-19T08:58:22.040Z,33.56
2022-08-19T09:01:11.689Z,33.65
2022-08-19T09:04:02.817Z,34.06
2022-08-19T09:06:55.177Z,33.98
2022-08-19T09:09:44.552Z,34.38
2022-08-19T09:12:55.180Z,34.39
2022-08-19T09:15:52.447Z,34.14
2022-08-19T09:18:54.566Z,34.35
2022-08-19T09:21:40.879Z,34.38
2022-08-19T09:24:31.100Z,34.59
2022-08-19T09:27:18.517Z,34.58
2022-08-19T09:30:07.432Z,34.93
2022-08-19T09:32:54.883Z,35.08
2022-08-19T09:35:49.884Z,35.25
2022-08-19T09:38:43.641Z,35.20
2022-08-19T09:41:30.857Z,35.45
2022-08-19T09:44:17.089Z,35.07
2022-08-19T09:47:05.671Z,35.33
2022-08-19T09:49:51.758Z,35.42
2022-08-19T09:52:38.600Z,35.69
2022-08-19T09:55:31.128Z,35.65
2022-08-19T09:58:20.499Z,35.42
2022-08-19T10:01:21.141Z,35.71
2022-08-19T10:04:14.738Z,35.27
2022-08-19T10:07:06.578Z,35.73
2022-08-19T10:09:53.046Z,36.03
2022-08-19T10:12:39.538Z,36.33
2022-08-19T10:15:28.954Z,36.60
2022-08-19T10:18:19.141Z,36.78
2022-08-19T10:21:12.222Z,36.63
2022-08-19T10:24:00.615Z,36.97
2022-08-19T10:26:58.742Z,36.94
2022-08-19T10:29:46.497Z,36.55
2022-08-19T10:32:34.357Z,36.99
2022-08-19T10:35:21.954Z,36.98
2022-08-19T10:38:08.691Z,37.09
2022-08-19T10:40:56.595Z,37.02
2022-08-19T10:43:43.791Z,37.41
2022-08-19T10:46:33.725Z,37.95
2022-08-19T10:49:20.449Z,37.89
2022-08-19T10:52:32.208Z,38.22
2022-08-19T10:55:40.843Z,37.97
2022-08-19T10:58:27.303Z,38.32
2022-08-19T11:01:13.597Z,38.76
2022-08-19T11:04:01.246Z,38.63
2022-08-19T11:06:49.283Z,39.22
2022-08-19T11:09:41.885Z,39.17
2022-08-19T11:12:28.735Z,38.51
2022-08-19T11:15:15.520Z,39.13
2022-08-19T11:18:01.902Z,39.31
2022-08-19T11:20:48.070Z,39.60
2022-08-19T11:23:34.714Z,39.23
2022-08-19T11:26:22.266Z,39.19
2022-08-19T11:29:12.400Z,38.93
2022-08-19T11:31:58.702Z,39.28
2022-08-19T11:34:45.075Z,39.96
2022-08-19T11:37:31.412Z,39.57
2022-08-19T11:40:17.847Z,39.77
2022-08-19T11:43:04.495Z,39.62
2022-08-19T11:45:51.204Z,40.37
2022-08-19T11:48:37.915Z,39.17
2022-08-19T11:51:28.283Z,40.50
2022-08-19T11:54:15.641Z,40.63
2022-08-19T11:57:04.219Z,40.21
2022-08-19T11:59:53.732Z,39.87
2022-08-19T12:02:40.883Z,39.76
2022-08-19T12:05:27.331Z,40.19
2022-08-19T12:08:16.604Z,39.83
2022-08-19T12:11:03.277Z,39.59
2022-08-19T12:13:49.686Z,39.51
2022-08-19T12:16:37.791Z,39.26
2022-08-19T12:19:26.933Z,38.78
2022-08-19T12:22:13.421Z,39.48
2022-08-19T12:24:59.666Z,39.12
2022-08-19T12:27:52.844Z,39.96
2022-08-19T12:30:43.818Z,39.73
2022-08-19T12:33:30.172Z,39.21
2022-08-19T12:36:17.162Z,39.11
2022-08-19T12:39:04.460Z,38.43
2022-08-19T12:41:54.361Z,38.98
2022-08-19T12:44:42.589Z,39.68
2022-08-19T12:47:28.989Z,40.06
2022-08-19T12:50:15.500Z,39.79
2022-08-19T12:53:01.761Z,39.74
2022-08-19T12:55:47.850Z,39.96
2022-08-19T12:58:35.525Z,39.98
2022-08-19T13:01:23.124Z,40.43
2022-08-19T13:04:09.558Z,41.21
2022-08-19T13:06:56.041Z,40.25
2022-08-19T13:09:43.593Z,40.15
2022-08-19T13:12:29.892Z,40.43
2022-08-19T13:15:23.775Z,39.60
2022-08-19T13:18:11.693Z,39.59
2022-08-19T13:20:57.833Z,39.37
2022-08-19T13:23:44.317Z,38.79
2022-08-19T13:26:30.776Z,39.60
2022-08-19T13:29:35.865Z,39.16
2022-08-19T13:32:41.043Z,38.92
2022-08-19T13:35:28.801Z,37.73
2022-08-19T13:38:17.541Z,36.59
2022-08-19T13:41:11.020Z,36.25
2022-08-19T13:43:58.525Z,35.42
2022-08-19T13:46:46.061Z,33.75
2022-08-19T13:49:32.399Z,32.57
2022-08-19T13:52:18.617Z,32.27
2022-08-19T13:55:05.656Z,32.59
2022-08-19T13:57:54.031Z,32.59
2022-08-19T14:00:43.541Z,32.32
2022-08-19T14:03:29.761Z,31.88
2022-08-19T14:06:15.882Z,32.06
2022-08-19T14:09:03.175Z,31.87
2022-08-19T14:11:51.215Z,32.10
2022-08-19T14:14:39.121Z,32.46
2022-08-19T14:17:26.012Z,32.79
2022-08-19T14:20:17.851Z,31.89
2022-08-19T14:23:06.614Z,32.07
2022-08-19T14:25:52.918Z,31.80
2022-08-19T14:28:41.858Z,31.93
2022-08-19T14:31:30.831Z,31.51
2022-08-19T14:34:17.149Z,31.51
2022-08-19T14:37:03.588Z,31.48
2022-08-19T14:39:50.611Z,31.14
2022-08-19T14:42:36.910Z,31.01
2022-08-19T14:45:23.571Z,30.89
2022-08-19T14:48:12.505Z,30.45
2022-08-19T14:51:07.110Z,30.39
2022-08-19T14:53:53.909Z,30.62
2022-08-19T14:56:41.180Z,30.53
2022-08-19T14:59:27.969Z,30.80
2022-08-19T15:02:34.278Z,30.41
2022-08-19T15:05:21.779Z,30.48
2022-08-19T15:08:07.755Z,30.59
2022-08-19T15:10:54.567Z,30.48
2022-08-19T15:13:40.765Z,30.20
2022-08-19T15:16:28.750Z,30.47
2022-08-19T15:19:14.730Z,30.34
2022-08-19T15:22:01.189Z,30.28
2022-08-19T15:24:47.984Z,30.35
2022-08-19T15:27:35.650Z,30.60
2022-08-19T15:30:25.334Z,30.41
2022-08-19T15:33:15.199Z,30.32
2022-08-19T15:36:01.288Z,30.14
2022-08-19T15:38:47.617Z,30.42
2022-08-19T15:41:34.785Z,30.24
2022-08-19T15:44:23.689Z,30.33
2022-08-19T15:47:10.026Z,30.29
2022-08-19T15:50:00.559Z,30.53
2022-08-19T15:52:49.811Z,30.09
2022-08-19T15:55:42.941Z,30.19
2022-08-19T15:58:47.629Z,30.30
2022-08-19T16:01:52.499Z,29.99
2022-08-19T16:04:57.528Z,29.43
2022-08-19T16:07:43.589Z,29.87
2022-08-19T16:10:30.712Z,29.57
2022-08-19T16:13:16.992Z,29.75
2022-08-19T16:16:03.407Z,29.83
2022-08-19T16:18:53.539Z,30.16
2022-08-19T16:21:41.813Z,29.56
2022-08-19T16:24:28.841Z,29.44
2022-08-19T16:27:16.532Z,29.54
2022-08-19T16:30:03.425Z,29.26
2022-08-19T16:32:49.900Z,29.21
2022-08-19T16:35:36.705Z,28.91
2022-08-19T16:38:23.858Z,28.57
2022-08-19T16:41:09.927Z,28.66
2022-08-19T16:43:56.383Z,28.57
2022-08-19T16:46:42.742Z,28.11
2022-08-19T16:49:54.165Z,28.29
2022-08-19T16:52:37.419Z,28.66
2022-08-19T16:55:23.788Z,28.33
2022-08-19T16:58:10.166Z,27.95
2022-08-19T17:01:00.769Z,28.27
2022-08-19T17:03:50.571Z,27.66
2022-08-19T17:06:38.202Z,27.77
2022-08-19T17:09:25.971Z,27.78
2022-08-19T17:12:13.098Z,27.51
2022-08-19T17:15:03.000Z,27.08
2022-08-19T17:17:49.426Z,27.12
2022-08-19T17:20:36.009Z,27.27
2022-08-19T17:23:23.447Z,25.95
2022-08-19T17:26:30.529Z,25.13
2022-08-19T17:29:16.834Z,25.14
2022-08-19T17:32:03.590Z,25.22
2022-08-19T17:34:50.186Z,25.38
2022-08-19T17:37:37.280Z,25.42
2022-08-19T17:40:25.030Z,26.24
2022-08-19T17:43:16.733Z,26.27
2022-08-19T17:46:19.619Z,26.60
2022-08-19T17:49:06.661Z,27.43
2022-08-19T17:51:53.500Z,27.34
2022-08-19T17:54:39.386Z,27.54
2022-08-19T17:57:25.651Z,28.00
2022-08-19T18:00:15.476Z,26.97
2022-08-19T18:03:05.256Z,28.19
2022-08-19T18:05:53.505Z,27.34
2022-08-19T18:08:39.924Z,26.40
2022-08-19T18:11:26.049Z,26.13
2022-08-19T18:14:13.313Z,25.50
2022-08-19T18:17:00.468Z,24.45
2022-08-19T18:19:47.877Z,24.96
2022-08-19T18:22:37.051Z,26.03
2022-08-19T18:25:26.099Z,25.52
2022-08-19T18:28:12.671Z,26.00
2022-08-19T18:30:59.317Z,26.58
2022-08-19T18:33:46.628Z,25.76
2022-08-19T18:36:53.056Z,25.03
2022-08-19T18:39:59.079Z,24.55
2022-08-19T18:43:04.989Z,24.49
2022-08-19T18:46:10.481Z,23.82
2022-08-19T18:49:05.879Z,24.02
2022-08-19T18:51:52.261Z,23.67
2022-08-19T18:54:40.268Z,23.12
2022-08-19T18:57:26.304Z,22.17
2022-08-19T19:00:13.211Z,22.98
2022-08-19T19:02:59.644Z,22.04
2022-08-19T19:05:45.994Z,22.50
2022-08-19T19:08:32.301Z,22.79
2022-08-19T19:11:23.984Z,22.66
2022-08-19T19:14:19.251Z,23.13
2022-08-19T19:17:18.247Z,22.94
2022-08-19T19:20:05.409Z,23.50
2022-08-19T19:22:52.165Z,23.48
2022-08-19T19:25:49.760Z,21.86
2022-08-19T19:28:39.507Z,21.88
2022-08-19T19:31:26.780Z,22.42
2022-08-19T19:34:28.867Z,23.24
2022-08-19T19:37:16.970Z,22.41
2022-08-19T19:40:04.348Z,22.72
2022-08-19T19:42:51.911Z,21.19
2022-08-19T19:45:38.661Z,20.93
2022-08-19T19:48:28.332Z,21.56
2022-08-19T19:51:14.812Z,21.95
2022-08-19T19:54:01.885Z,22.00
2022-08-19T19:56:50.387Z,21.87
2022-08-19T19:59:36.596Z,22.56
2022-08-19T20:02:25.230Z,22.27
2022-08-19T20:05:12.682Z,21.73
2022-08-19T20:08:18.996Z,22.73
2022-08-19T20:11:07.273Z,21.56
2022-08-19T20:13:53.269Z,22.12
2022-08-19T20:16:44.117Z,21.87
2022-08-19T20:19:37.060Z,21.98
2022-08-19T20:22:25.605Z,21.73
2022-08-19T20:25:16.375Z,21.50
2022-08-19T20:28:05.757Z,21.67
2022-08-19T20:30:52.510Z,21.23
2022-08-19T20:33:38.833Z,21.68
2022-08-19T20:36:25.289Z,21.40
2022-08-19T20:39:12.325Z,22.00
2022-08-19T20:42:00.788Z,21.80
2022-08-19T20:44:47.175Z,21.73
2022-08-19T20:47:33.269Z,22.10
2022-08-19T20:50:19.873Z,22.04
2022-08-19T20:53:14.529Z,22.24
2022-08-19T20:56:01.048Z,22.51
2022-08-19T20:58:53.492Z,22.31
2022-08-19T21:01:40.934Z,22.48
2022-08-19T21:04:27.405Z,22.35
2022-08-19T21:07:14.300Z,22.58
2022-08-19T21:10:00.700Z,22.32
2022-08-19T21:12:47.116Z,22.78
2022-08-19T21:15:34.210Z,22.08
2022-08-19T21:18:22.553Z,21.31
2022-08-19T21:21:08.846Z,20.67
2022-08-19T21:23:55.057Z,20.20
2022-08-19T21:26:41.470Z,20.21
2022-08-19T21:29:27.946Z,20.75
2022-08-19T21:32:14.671Z,20.64
2022-08-19T21:35:02.257Z,20.79
2022-08-19T21:37:48.735Z,21.88
2022-08-19T21:40:35.162Z,20.93
2022-08-19T21:43:21.878Z,21.34
2022-08-19T21:46:09.102Z,21.64
2022-08-19T21:48:55.355Z,22.35
2022-08-19T21:51:41.541Z,22.14
2022-08-19T21:54:27.587Z,22.96
2022-08-19T21:57:25.282Z,22.88
2022-08-19T22:00:18.573Z,23.25
2022-08-19T22:03:05.635Z,23.28
2022-08-19T22:05:51.520Z,22.83
2022-08-19T22:08:37.874Z,23.12
2022-08-19T22:11:25.267Z,21.35
2022-08-19T22:14:11.652Z,21.20
2022-08-19T22:16:58.671Z,22.06
2022-08-19T22:19:45.082Z,21.48
2022-08-19T22:22:33.209Z,22.78
2022-08-19T22:25:29.061Z,21.78
2022-08-19T22:28:19.154Z,21.69
2022-08-19T22:31:14.610Z,21.32
2022-08-19T22:34:01.879Z,22.61
2022-08-19T22:36:48.034Z,22.68
2022-08-19T22:39:34.966Z,21.38
2022-08-19T22:42:22.058Z,21.54
2022-08-19T22:45:10.141Z,22.65
2022-08-19T22:47:57.241Z,22.83
2022-08-19T22:51:04.927Z,22.39
2022-08-19T22:53:51.401Z,21.37
2022-08-19T22:56:37.197Z,21.82
2022-08-19T22:59:23.631Z,22.10
2022-08-19T23:02:10.153Z,22.62
2022-08-19T23:04:56.452Z,22.95
2022-08-19T23:07:42.706Z,23.23
2022-08-19T23:10:38.135Z,23.51
2022-08-19T23:13:24.776Z,23.32
2022-08-19T23:16:11.465Z,22.84
2022-08-19T23:18:58.524Z,23.35
2022-08-19T23:21:45.196Z,23.48
2022-08-19T23:24:31.551Z,22.23
2022-08-19T23:27:36.712Z,22.66
2022-08-19T23:30:25.925Z,22.73
2022-08-19T23:33:16.156Z,21.24
2022-08-19T23:36:16.964Z,21.92
2022-08-19T23:39:03.586Z,22.00
2022-08-19T23:41:49.613Z,22.48
2022-08-19T23:44:35.995Z,23.06
2022-08-19T23:47:37.840Z,23.11
2022-08-19T23:50:27.733Z,22.90
2022-08-19T23:53:14.736Z,23.27
2022-08-19T23:56:01.313Z,22.71
2022-08-19T23:58:49.066Z,23.18
